Edina — V4DE3 — position and weather

sailwx.info

Track history (hours):
 
Tides and Currents Weather Stations Pressure Air Temp Water Temp Dewpoint Dewpoint Depression Visibility Wind Speed Wind Dir Waves Ship Positions

Edina

Last reported at 2017-Nov-19 21:31 UTC. Time now 2017-Nov-19 21:48 UTC.
Position N 16°32' W 062°07'.

Length 30 m; draft 4.2 m.

Type: Tug. MMSI: 341645000.

Date/timePositionNaut miles runAvg speedWind from/ knotsBaromVisibWave heightAir tempDewpointWater temp
2017-Nov-19 21:31N 16°32' W 062°07'3 5.6
2017-Nov-19 21:01N 16°35' W 062°08'3 5.6
2017-Nov-19 20:31N 16°37' W 062°10'3 5.7
2017-Nov-19 20:01N 16°39' W 062°12'4 0.5
2017-Nov-19 11:00N 16°42' W 062°15'4 7.3
2017-Nov-19 10:30N 16°46' W 062°16'4 7.8
2017-Nov-19 10:00N 16°50' W 062°17'4 7.7
2017-Nov-19 09:28N 16°54' W 062°17'3 7.6
2017-Nov-19 09:00N 16°57' W 062°17'10 7.1
2017-Nov-19 07:33N 17°06' W 062°22'8 7.5
2017-Nov-19 06:29N 17°12' W 062°27'61 7.5
2017-Nov-18 22:24N 17°60' W 063°07'1 0.0
2017-Nov-17 07:16N 18°00' W 063°08'1 5.2
2017-Nov-17 07:00N 18°00' W 063°07'83 2.6
2017-Nov-15 22:51N 16°49' W 062°22'2 6.1
2017-Nov-15 22:30N 16°47' W 062°20'3 6.1
2017-Nov-15 22:00N 16°45' W 062°18'3 6.1
2017-Nov-15 21:30N 16°43' W 062°15'1 0.1
2017-Nov-15 10:23N 16°42' W 062°15'1 3.3
2017-Nov-15 10:01N 16°43' W 062°16'2 3.9
2017-Nov-15 09:30N 16°44' W 062°17'2 4.5
2017-Nov-15 09:00N 16°45' W 062°19'2 4.3
2017-Nov-15 08:30N 16°46' W 062°21'2 4.2
2017-Nov-15 08:00N 16°48' W 062°23'  
Track history (hours):
 
Tides and Currents Weather Stations Pressure Air Temp Water Temp Dewpoint Dewpoint Depression Visibility Wind Speed Wind Dir Waves Ship Positions

Edina

Last reported at 2017-Nov-19 21:31 UTC. Time now 2017-Nov-19 21:48 UTC.
Position N 16°32' W 062°07'.

Length 30 m; draft 4.2 m.

Type: Tug. MMSI: 341645000.

Date/timePositionNaut miles runAvg speedWind from/ knotsBaromVisibWave heightAir tempDewpointWater temp
2017-Nov-19 21:31N 16°32' W 062°07'3 5.6
2017-Nov-19 21:01N 16°35' W 062°08'3 5.6
2017-Nov-19 20:31N 16°37' W 062°10'3 5.7
2017-Nov-19 20:01N 16°39' W 062°12'4 0.5
2017-Nov-19 11:00N 16°42' W 062°15'4 7.3
2017-Nov-19 10:30N 16°46' W 062°16'4 7.8
2017-Nov-19 10:00N 16°50' W 062°17'4 7.7
2017-Nov-19 09:28N 16°54' W 062°17'3 7.6
2017-Nov-19 09:00N 16°57' W 062°17'10 7.1
2017-Nov-19 07:33N 17°06' W 062°22'8 7.5
2017-Nov-19 06:29N 17°12' W 062°27'61 7.5
2017-Nov-18 22:24N 17°60' W 063°07'1 0.0
2017-Nov-17 07:16N 18°00' W 063°08'1 5.2
2017-Nov-17 07:00N 18°00' W 063°07'83 2.6
2017-Nov-15 22:51N 16°49' W 062°22'2 6.1
2017-Nov-15 22:30N 16°47' W 062°20'3 6.1
2017-Nov-15 22:00N 16°45' W 062°18'3 6.1
2017-Nov-15 21:30N 16°43' W 062°15'1 0.1
2017-Nov-15 10:23N 16°42' W 062°15'1 3.3
2017-Nov-15 10:01N 16°43' W 062°16'2 3.9
2017-Nov-15 09:30N 16°44' W 062°17'2 4.5
2017-Nov-15 09:00N 16°45' W 062°19'2 4.3
2017-Nov-15 08:30N 16°46' W 062°21'2 4.2
2017-Nov-15 08:00N 16°48' W 062°23'  

Dump ship's entire track history